This is the latest recevied weather packets stored in our database for station/object KF0ZH. If no packets are shown the sender has not sent any weather packets the latest 10 day(s).
| Time | Temp. | Humidity | Pressure | Rain* | Wind** | Luminosity | Snow |
|---|---|---|---|---|---|---|---|
| 1777672024 | 11.11° C | 46% | 1017.1 hPa | 0 mm | 0 m/s | - | - |
| 1777671721 | 11.11° C | 46% | 1017.1 hPa | 0 mm | 1.34 m/s, 309° | - | - |
| 1777671421 | 11.11° C | 46% | 1017.1 hPa | 0 mm | 0 m/s | - | - |
| 1777671121 | 11.11° C | 48% | 1017.1 hPa | 0 mm | 1.34 m/s, 262° | - | - |
| 1777670521 | 11.11° C | 47% | 1017.1 hPa | 0 mm | 0 m/s | - | - |
| 1777670223 | 11.67° C | 46% | 1017.1 hPa | 0 mm | 4.02 m/s, 306° | - | - |
| 1777669921 | 11.67° C | 47% | 1017.1 hPa | 0 mm | 0 m/s | - | - |
| 1777669623 | 11.67° C | 46% | 1017.2 hPa | 0 mm | 3.58 m/s, 292° | - | - |
| 1777669326 | 11.67° C | 47% | 1017.2 hPa | 0 mm | 0 m/s | - | - |
| 1777669021 | 11.11° C | 47% | 1017.2 hPa | 0 mm | 2.24 m/s, 292° | - | - |
| 1777668721 | 11.11° C | 45% | 1017.3 hPa | 0 mm | 0 m/s | - | - |
| 1777668423 | 11.67° C | 46% | 1017.4 hPa | 0 mm | 2.24 m/s, 331° | - | - |
| 1777667821 | 10.56° C | 47% | 1017.4 hPa | 0 mm | 0 m/s | - | - |
| 1777667520 | 10.56° C | 47% | 1017.5 hPa | 0 mm | 3.58 m/s, 316° | - | - |
| 1777667221 | 11.11° C | 48% | 1017.4 hPa | 0 mm | 2.68 m/s, 8° | - | - |
| 1777666621 | 10.56° C | 48% | 1017.4 hPa | 0 mm | 0 m/s | - | - |
| 1777666321 | 10.56° C | 48% | 1017.4 hPa | 0 mm | 2.68 m/s, 322° | - | - |
| 1777666021 | 11.11° C | 51% | 1017.5 hPa | 0 mm | 1.79 m/s, 22° | - | - |
| 1777665721 | 10.56° C | 47% | 1017.6 hPa | 0 mm | 1.79 m/s, 313° | - | - |
| 1777665422 | 10.56° C | 48% | 1017.6 hPa | 0 mm | 3.13 m/s, 324° | - | - |
| 1777665123 | 10.56° C | 48% | 1017.5 hPa | 0 mm | 3.58 m/s, 309° | - | - |
| 1777664820 | 10.56° C | 49% | 1017.5 hPa | 0 mm | 0 m/s | - | - |
| 1777664521 | 10.56° C | 48% | 1017.6 hPa | 0 mm | 2.68 m/s, 67° | - | - |
| 1777664221 | 10.56° C | 51% | 1017.6 hPa | 0 mm | 0 m/s | - | - |
| 1777663921 | 10.56° C | 49% | 1017.6 hPa | 0 mm | 0 m/s | - | - |
* Rain latest hour (hover to see other rain measurements)
** Current wind speed in m/s (hover to see current wind gust speed)